Isunngua v. Kangerlussuaq

KL  EN  DA
ASIAQ
Weather Now GREENLAND SURVEY
Updated [WGT/WGST] Temperature [°C] Wind [m/s] Air pressure [hPa] Relative humidity [%] Precipitation [mm]
Present Wind chill Speed Max
24.09 03:00n/an/an/an/an/an/an/a
24.09 02:00-8,30,00,7 ⇘n/a97157n/a
24.09 01:00-7,80,01,4 ⇙n/a97253n/a
24.09 00:00-7,70,01,2 ⇓n/a97351n/a
23.09 23:00-8,00,02,5 ⇙n/a97456n/a
23.09 22:00-7,90,02,9 ⇙n/a97458n/a
23.09 21:00-8,10,03,2 ⇓n/a97560n/a
23.09 20:00-7,30,05,3 ⇙n/a97663n/a
23.09 19:00-6,60,03,7 ⇐n/a97659n/a
23.09 18:00-5,90,03,6 ⇐n/a97759n/a
23.09 17:00-5,20,03,0 ⇙n/a97859n/a
23.09 16:00-3,90,02,0 ⇙n/a97852n/a
23.09 15:00-3,80,02,5 ⇑n/a97851n/a
23.09 14:00-3,90,01,9 ⇐n/a97861n/a
23.09 13:00-3,80,02,8 ⇙n/a97864n/a
23.09 12:00-4,10,02,0 ⇐n/a97868n/a
23.09 11:00-4,20,01,4 ⇐n/a97870n/a
23.09 10:00-4,40,01,3 ⇐n/a97879n/a
23.09 09:00-4,60,00,7 ⇘n/a97886n/a
23.09 08:00-4,30,01,4 ⇐n/a97889n/a
23.09 07:00-4,10,00,6 ⇗n/a97787n/a
23.09 06:00-4,20,00,4 ⇘n/a97788n/a
23.09 05:00-5,10,01,0 ⇗n/a97690n/a
23.09 04:00-4,20,01,0 ⇒n/a97687n/a
23.09 03:00-3,60,01,7 ⇒n/a97684n/a
Position: (67.1252,-50.1832)

[Back]